Yetter, Iowa
Current Conditions -  °F | °C
As of 10:15 AM on Friday 19 Dec 2014 (Local Time) from KCIN Reporting Station
Haze Haze  
Wind Chill: 23°   Ceiling: 700
Heat Index: 30°   Visibility: 2.5mi
Dew Point: 30°   Wind: 8mph
Humidity: 100%   Direction: 180°S
Pressure: 30.24"   Gusts: NA
Location:  42.2974°N, 94.9163°W
Report Text: KCIN 191615Z AUTO 18007KT 2 1/2SM BR OVC007 M01/M01 A3024 RMK AO2
Loading
Personal Weather Stations






























Interactive Weather Map New forecast layout! Learn more

10-Day Weather Forecast

Advertisements
Track Severe Weather on mobile